Electron Alley

Oops — I Never Saw It Do That Before . . . .

Archive for June 2011

Erie Effects: May, 2011 – North

leave a comment »

Advertisements

Erie Effects: May, 2011 – East

leave a comment »

Erie Effects: May, 2011 Wx Log

leave a comment »

May 1

8:53 AM 55.0 °F 50.0 °F 83% 30.01 in 10.0 miles SSE 10.4 mph – 0.03 in Overcast

METAR KLPR 011253Z AUTO 15009KT 10SM OVC050 13/10 A3001 RMK AO2 RAE09B37E49 SLP160 P0003 T01280100

Sunrise: 6:26am; Sunset: 8:25pm; Moonrise: 5:15am; Moonset: 7:14pm; Day length: 13h 58m

May 2

8:53 AM 53.1 °F 45.0 °F 74% 30.11 in 10.0 miles Calm Calm – 0.00 in Rain Light Rain

METAR KLPR 021253Z AUTO 00000KT 10SM -RA FEW025 OVC046 12/07 A3011 RMK AO2 RAB18 SLP195 P0000 T01170072

Sunrise: 6:25am; Sunset: 8:26pm; Moonrise: 5:43am; Moonset: 8:15pm; Day length: 14h 1m

May 3

8:28 AM 44.6 °F 42.8 °F 93% 30.10 in 2.0 miles NNE 11.5 mph – 0.10 in Rain Rain

SPECI KLPR 031228Z AUTO 02010KT 2SM RA BR BKN005 OVC010 07/06 A3010 RMK AO2 CIG 004V009 P0010

Sunrise: 6:24am; Sunset: 8:27pm; Moonrise: 6:16am; Moonset: 9:16pm; New Moon: 1:52am; Day length: 1h 3m

May 4

8:53 AM 43.0 °F 37.0 °F 80% 30.27 in 10.0 miles North 10.4 mph – N/A Overcast

METAR KLPR 041253Z AUTO 36009KT 10SM FEW013 OVC021 06/03 A3025 RMK AO2 SLP248 T00610028

Sunrise: 6:23am; Sunset: 8:28pm; Moonrise: 6:54am; Moonset: 10:15pm; Day length: 14h 6m

May 5

8:53 AM 50.0 °F 37.0 °F 61% 30.32 in 10.0 miles NW 11.5 mph – N/A Clear

METAR KLPR 051253Z AUTO 31010KT 10SM CLR 10/03 A3030 RMK AO2 SLP265 T01000028

Sunrise: 6:21am; Sunset: 8:29pm; Moonrise: 7:39am; Moonset: 11:10pm; Day length: 14h 8m

May 6

8:53 AM 54.0 °F 41.0 °F 62% 29.90 in 10.0 miles SSW 9.2 mph – N/A Clear

METAR KLPR 061253Z AUTO 21008KT 10SM CLR 12/05 A2990 RMK AO2 SLP123 T01220050

Sunrise: 6:20am; Sunset: 8:30pm; Moonrise: 8:31am; Moonset: 12:00pm; Day length: 14h 10m

May 7

8:53 AM 55.9 °F 46.9 °F 72% 29.90 in 10.0 miles SW 10.4 mph – 0.01 in Scattered Clouds

METAR KLPR 071253Z AUTO 23009KT 10SM SCT120 13/08 A2989 RMK AO2 SLP123 P0001 T01330083

Sunrise: 6:19am; Sunset: 8:31pm; Moonrise: 9:30am; Moonset: none; Day length: 14h 12m

May 8

8:53 AM 55.9 °F 48.0 °F 75% 30.00 in 10.0 miles NE 3.5 mph – N/A Scattered Clouds

METAR KLPR 081253Z AUTO 05003KT 10SM SCT080 13/09 A3000 RMK AO2 SLP158 T01330089

Sunrise: 6:18am; Sunset: 8:32pm; Moonrise: 10:34am; Moonset: 12:45am; Day length: 14h 15m

May 9

8:53 AM 55.9 °F 41.0 °F 57% 30.15 in 10.0 miles East 9.2 mph – N/A Clear

METAR KLPR 091253Z AUTO 09008KT 10SM CLR 13/05 A3015 RMK AO2 SLP210 T01330050

Sunrise: 6:16am; Sunset: 8:33pm; Moonrise: 11:42am; Moonset: 1:24am; Day length: 14h 17m

May 10

8:53 AM 60.1 °F 41.0 °F 49% 30.01 in 10.0 miles SE 11.5 mph – N/A Scattered Clouds

METAR KLPR 101253Z AUTO 13010KT 10SM SCT110 16/05 A3001 RMK AO2 SLP162 T01560050

Sunrise: 6:15am; Sunset: 8:34pm; Moonrise: 12:52pm; Moonset: 1:58am; First Qtr: 3:34pm; Day length: 14h 19m

May 11

8:53 AM 66.0 °F 50.0 °F 56% 29.96 in 10.0 miles South 4.6 mph – N/A Clear

METAR KLPR 111253Z AUTO 17004KT 10SM CLR 19/10 A2997 RMK AO2 SLP145 T01890100

Sunrise: 6:14am; Sunset: 8:35pm; Moonrise: 2:02pm; Moonset: 2:29am; Day length: 14h 21m

May 12

8:45 AM 57.2 °F 53.6 °F 88% 29.95 in 4.0 miles SW 9.2 mph – 0.03 in Rain Rain

SPECI KLPR 121245Z AUTO 23008KT 4SM RA BR BKN040 14/12 A2995 RMK AO2 LTG DSNT W AND NW TSB11E39RAB38 P0003

Sunrise: 6:13am; Sunset: 8:36pm; Moonrise: 3:14pm; Moonset: 2:59am; Day length: 14h 23m

May 13

8:53 AM 72.0 °F 64.0 °F 76% 29.76 in 7.0 miles South 6.9 mph – N/A Clear

METAR KLPR 131253Z AUTO 19006KT 7SM CLR 22/18 A2977 RMK AO2 SLP076 T02220178

Sunrise: 6:12am; Sunset: 8:37pm; Moonrise: 4:28pm; Moonset: 3:28am; Day length: 14h 25m

May 14

8:45 AM 64.4 °F 62.6 °F 94% 29.67 in 5.0 miles Calm Calm – N/A Mostly Cloudy

SPECI KLPR 141245Z AUTO 00000KT 5SM BR FEW004 BKN100 18/17 A2967 RMK AO2

Sunrise: 6:11am; Sunset: 8:38pm; Moonrise: 5:43pm; Moonset: 3:59am; Day length: 14h 27m
May 15

8:27 AM 53.6 °F 51.8 °F 94% 29.57 in 1.0 miles NE 5.8 mph – 0.01 in Overcast

SPECI KLPR 151227Z AUTO 05005KT 1SM BR OVC002 12/11 A2957 RMK AO2 RAB05E23 P0001

Sunrise: 6:10am; Sunset: 8:39pm; Moonrise: 6:59pm; Moonset: 4:33am; Day length: 14h 29m

May 16

8:53 AM 45.0 °F 42.1 °F 90% 29.80 in 1.8 miles NNE 16.1 mph 25.3 mph 0.01 in Rain Light Rain

METAR KLPR 161253Z AUTO 03014G22KT 1 3/4SM -RA BR BKN008 BKN014 OVC020 07/06 A2979 RMK AO2 VIS 1 1/4V2 1/2 CIG 005V010 SLP091 P0001 T00720056

Sunrise: 6:09am; Sunset: 8:41pm; Moonrise: 8:14pm; Moonset: 5:12am; Day length: 14h 31m

May 17

8:53 AM 46.9 °F 43.0 °F 86% 29.88 in 10.0 miles NE 18.4 mph 25.3 mph N/A Overcast

METAR KLPR 171253Z AUTO 04016G22KT 10SM OVC007 08/06 A2987 RMK AO2 SLP119 T00830061

Sunrise: 6:08am; Sunset: 8:41pm; Moonrise: 9:25pm; Moonset: 5:57am; Full Moon: 6:10am; Day length: 14h 33m

May 18

8:53 AM 53.1 °F 51.1 °F 93% 29.81 in 5.0 miles North 3.5 mph – N/A Overcast METAR KLPR 181253Z AUTO 01003KT 5SM BR OVC001 12/11 A2981 RMK AO2 SLP095 T01170106

Sunrise: 6:07am; Sunset: 8:42pm; Moonrise: 10:29pm; Moonset: 6:50am; Day length: 14h 35m

May 19

8:23 AM 55.4 °F 53.6 °F 94% 29.95 in 5.0 miles South 8.1 mph – N/A Overcast

SPECI KLPR 191223Z AUTO 19007KT 5SM BR FEW007 OVC019 13/12 A2995 RMK AO2

Sunrise: 6:06am; Sunset: 8:43pm; Moonrise: 11:23pm; Moonset: 7:50am; Day length: 14h 37m

May 20

8:18 AM 57.2 °F 55.4 °F 94% 30.08 in 3.0 miles Calm Calm – N/A Overcast

SPECI KLPR 201218Z AUTO 00000KT 3SM BR OVC001 14/13 A3008 RMK AO2

Sunrise: 6:05am; Sunset: 8:44pm; Moonrise: none; Moonset: 8:55am; Day length: 14h 39m

May 21

8:53 AM 63.0 °F 55.9 °F 78% 30.09 in 6.0 miles South 5.8 mph – N/A Haze

METAR KLPR 211253Z AUTO 19005KT 6SM HZ CLR 17/13 A3009 RMK AO2 SLP188 T01720133

Sunrise: 6:05am; Sunset: 8:45pm; Moonrise: 12:08am; Moonset: 10:01am; Day length: 14h 41m

May 22

8:53 AM 66.9 °F 61.0 °F 81% 29.94 in 10.0 miles South 9.2 mph – N/A Mostly Cloudy

METAR KLPR 221253Z AUTO 19008KT 10SM FEW038 SCT060 BKN080 19/16 A2996 RMK AO2 SLP139 T01940161

Sunrise: 6:04am; Sunset: 8:46pm; Moonrise: 12:44am; Moonset: 11:06am; Day length: 14h 43m

May 23

8:53 AM 70.0 °F 60.1 °F 71% 29.75 in 10.0 miles SSW 18.4 mph 26.5 mph N/A Clear

METAR KLPR 231253Z AUTO 21016G23KT 10SM CLR 21/16 A2976 RMK AO2 SLP072 T02110156 $

Sunrise: 6:03am; Sunset: 8:47pm; Moonrise: 1:15am; Moonset: 12:09pm; Day length: 14h 44m

May 24

8:53 AM 66.9 °F 61.0 °F 81% 29.82 in 10.0 miles West 9.2 mph – N/A Partly Cloudy

METAR KLPR 241253Z AUTO 26008KT 10SM FEW013 19/16 A2983 RMK AO2 SLP097 T01940161

Sunrise: 6:02am; Sunset: 8:48pm; Moonrise: 1:42am; Moonset: 1:10pm; Last Qtr: 1:53pm; Day length: 14h 46m

May 25

8:53 AM 63.0 °F 55.9 °F 78% 29.91 in 10.0 miles SSE 5.8 mph – N/A Partly Cloudy

METAR KLPR 251253Z AUTO 15005KT 10SM FEW110 17/13 A2992 RMK AO2 SLP129 T01720133

Sunrise: 6:01am; Sunset: 8:49pm; Moonrise: 2:06am; Moonset: 2:09pm; Day length: 14h 48m

May 26

8:45 AM 66.2 °F 64.4 °F 94% 29.71 in 10.0 miles SSW 8.1 mph – N/A Mostly Cloudy

SPECI KLPR 261245Z AUTO 21007KT 10SM BKN021 BKN100 19/18 A2971 RMK AO2

Sunrise: 6:01am; Sunset: 8:50pm; Moonrise: 2:29am; Moonset: 3:07pm; Day length: 14h 49m

May 27

8:39 AM 53.6 °F 51.8 °F 94% 29.93 in 1.8 miles Calm Calm – N/A Overcast

SPECI KLPR 271239Z AUTO 00000KT 1 3/4SM BR OVC002 12/11 A2993 RMK AO2

Sunrise: 6:00am; Sunset: 8:51pm; Moonrise: 2:53am; Moonset: 4:05pm; Day length: 14h 51m

May 28

8:53 AM 62.1 °F 57.9 °F 86% 29.93 in 8.0 miles SW 6.9 mph – N/A Overcast

METAR KLPR 281253Z AUTO 22006KT 8SM OVC036 17/14 A2993 RMK AO2 SLP133 T01670144

Sunrise: 5:59am; Sunset: 8:52pm; Moonrise: 3:17am; Moonset: 5:05pm; Day length: 14h 52m

May 29

8:53 AM 73.0 °F 64.0 °F 73% 29.94 in 10.0 miles SSW 9.2 mph – N/A Mostly Cloudy

METAR KLPR 291253Z AUTO 20008KT 10SM BKN060 BKN075 BKN100 23/18 A2995 RMK AO2 SLP137 T02280178

Sunrise: 5:59am; Sunset: 8:53pm; Moonrise: 3:45am; Moonset: 6:05pm; Day length: 14h 54m

May 30

8:53 AM 77.0 °F 69.1 °F 76% 30.14 in 9.0 miles SW 6.9 mph – N/A Clear

METAR KLPR 301253Z AUTO 22006KT 9SM CLR 25/21 A3015 RMK AO2 SLP206 T02500206

Sunrise: 5:58am; Sunset: 8:53pm; Moonrise: 4:16am; Moonset: 7:06pm; Day length: 14h 55m

May 31

8:53 AM 79.0 °F 71.1 °F 77% 30.20 in 8.0 miles SW 6.9 mph – N/A Clear

METAR KLPR 311253Z AUTO 22006KT 8SM CLR 26/22 A3022 RMK AO2 SLP226 T02610217

Sunrise: 5:58am; Sunset: 8:54pm; Moonrise: 4:52am; Moonset: 8:06pm; Day length: 14h 56m

 Weather Data from this Great Site

Erie Effects: Drift Away Solo Mix

leave a comment »

Gibson J45 – Compression @ 50%; Mic @ 30%

Mackie Reverb:  Medium Plate – Blend @ 50%; Pre Delay @ 5 ms; Decay @ 2.3 sec; Damping @ 50%; Diffusion @ 6; Roll-off @ 17.8 kHz; Dry Mix @ 80%

Mackie Mono Compressor:  Classic Compression – Threshold @ 17.5 dB; Attach @ 2 ms; Release @ 1048 ms; Gain @ 2:1; Output @ 5

Acuma Final Mix:  Gentle Compression – Output + 6 dB; Band 1 @ 0 / 58 Hz / 4.42; Band 2 @ 0 / 749 Hz / 6.00 ; Band 3 @ 0 / 848 Hz / 4.33 ; Crossover 1 – 12 dB @ 315 Hz; Crossover 2 – 12 dB @ 3.17 kHz

Erie Effects: April, 2011 – Pan

leave a comment »

Erie Effects: 6/9/ – Jig Ransom Mix

leave a comment »

Track 1 – Drums:  Mackie Stereo Channel Strip – Drum Kit/Ambient Mics Pre-set

Track 2 – Bass

Track 3 – Acoustic Rhythm:  Tracktion reverb – Room Size @ 4; Damping @ 50%; Wet Mix @ 0 dB; Dry Mix @ 0 Db; Width @ 100%

Track 4 – Piano:  Tracktion reverb – Room Size @ 4; Damping @ 50%; Wet Mix @ -3.86 dB; Dry Mix @ 0 Db; Width @ 100%

Track 5 – J200 Rhythm Slide – Mackie Mono Compressor – Classic Compressor Preset

Track 6 – J200  Slide Lead – Mackie Mono Compressor – Guitar Snap Preset

Track 7 – Telecaster Rhythm

Track 8 – Stratocaster Lead  &  Les Paul Jr. Slide Lead

Erie Effects: Jig Ransom 6/8 & 6/9 Sessions

leave a comment »

Rhythm Guitar:  Telecaster – Neck & Bridge Pickups ; PodXT:  Mud-Seltzer

Tweed Bassman:  Drive @ 17%; Bass @ 37%; Mid @ 65%; Treble @ 84%; Presence @ 4%; Channel @ 76%; SM57 on Axis on 40% Room

Compression:  -47 dB  @ 5 dB

Sine Chorus:  Speed @ 2.0 Hz; Depth @ 25%; Bass @ 50%; Treble @ 79%; Mix @ 43%

Analog Delay:  500 ms; Feedback @ 50%; Mod Speed @ 0%; Depth @ 0%; Mix @ 27%

Reverb:  Standard Spring – Dwell @ 0%; Tone @ 29%; Mix @ 25%

Lead Guitar:  Stratocaster – Middle & Bridge Pickups; PodXT:  Mud-Paisley

Vox A30:  Drive @ 26%; Bass @ 100%; Mid @ 100%; Treble @ 89%; Presence @ 53%; Channel Volume @ 59%; SM57 On Axis 30% room

Compression:  Threshold @ -36 dB; Gain @ 3dB

Blue Compressor:  Sustain @ 75%; Level @ 100%

Tube Echo Delay:  250 ms; Feedback @ 13%; Flut @ 21%; Drive @ 2%; Mix @ 17%

Reverb:  Chamber – Pre @ 53%; Decay @ 16%; Tone @ 44%; Mix @ 46%

Lead Slide:  Les Paul Jr; PodXT – Eruption:

Marshall Plexi/Variax Drive @ 100; Bass @ 100; Mid @ 100; Treble @ 100;  Presence @ 87; Channel @ 90; SM57 on Axi & 48% Room;

Gate:   Threshold @ -50 dB, Decay @ 6%;

Phaser:  .17 Hz, Feedback @ 0%, Mix @ 38%;

Analog Delay:  399 ms; Feedback @ 39%; Treble @ 50%; Bass @ 50%; Mix @ 29%

Reverb:  Large Plate – Pre @ 50%; Decay @50% ; Tone @ 50%; Mix @ 60%

EQ:  55 Hz @ -3.4 dB; 1kHz @ 5 dB; 4.8 kHz @ .8 dB; 9.3 kHz @ -3.4 dB